createdAt,value
2018-12-17T00:00:51.748Z,97760.82
2018-12-17T00:01:54.549Z,97760.54
2018-12-17T00:02:57.551Z,97758.41
2018-12-17T00:04:00.382Z,97753.85
2018-12-17T00:05:03.217Z,97751.72
2018-12-17T00:06:06.023Z,97754.63
2018-12-17T00:07:09.300Z,97759.75
2018-12-17T00:08:12.076Z,97754.13
2018-12-17T00:09:15.900Z,97755.73
2018-12-17T00:10:19.415Z,97755.20
2018-12-17T00:11:22.227Z,97753.31
2018-12-17T00:12:25.021Z,97753.58
2018-12-17T00:13:28.095Z,97747.16
2018-12-17T00:14:30.861Z,97757.86
2018-12-17T00:15:33.644Z,97758.64
2018-12-17T00:16:36.542Z,97763.78
2018-12-17T00:17:39.320Z,97761.63
2018-12-17T00:18:42.114Z,97752.53
2018-12-17T00:19:45.202Z,97748.49
2018-12-17T00:20:47.984Z,97757.30
2018-12-17T00:21:50.791Z,97755.17
2018-12-17T00:22:53.554Z,97759.48
2018-12-17T00:23:56.762Z,97756.27
2018-12-17T00:24:59.553Z,97754.13
2018-12-17T00:26:02.662Z,97762.44
2018-12-17T00:27:05.936Z,97757.59
2018-12-17T00:28:08.799Z,97753.06
2018-12-17T00:29:11.616Z,97754.11
2018-12-17T00:30:16.293Z,97751.95
2018-12-17T00:31:19.035Z,97748.49
2018-12-17T00:32:22.097Z,97744.47
2018-12-17T00:33:29.243Z,97748.48
2018-12-17T00:34:32.106Z,97747.15
2018-12-17T00:35:35.215Z,97749.55
2018-12-17T00:36:39.454Z,97742.33
2018-12-17T00:37:42.236Z,97747.92
2018-12-17T00:38:46.170Z,97749.27
2018-12-17T00:39:48.932Z,97753.56
2018-12-17T00:40:52.886Z,97748.48
2018-12-17T00:41:55.661Z,97751.95
2018-12-17T00:42:58.443Z,97752.77
2018-12-17T00:44:01.249Z,97751.70
2018-12-17T00:45:04.052Z,97755.98
2018-12-17T00:46:06.869Z,97758.90
2018-12-17T00:47:09.607Z,97759.45
2018-12-17T00:48:12.386Z,97757.04
2018-12-17T00:49:15.187Z,97762.13
2018-12-17T00:50:18.401Z,97754.64
2018-12-17T00:51:22.113Z,97762.67
2018-12-17T00:52:24.897Z,97759.99
2018-12-17T00:53:27.666Z,97755.44
2018-12-17T00:54:30.462Z,97760.52
2018-12-17T00:55:33.231Z,97753.81
2018-12-17T00:56:36.005Z,97757.31
2018-12-17T00:57:39.156Z,97759.16
2018-12-17T00:58:41.888Z,97756.49
2018-12-17T00:59:44.665Z,97759.43
2018-12-17T01:00:47.437Z,97761.03
2018-12-17T01:01:50.235Z,97755.67
2018-12-17T01:02:52.953Z,97756.75
2018-12-17T01:03:57.423Z,97755.41
2018-12-17T01:05:00.194Z,97754.34
2018-12-17T01:06:03.029Z,97757.02
2018-12-17T01:07:05.871Z,97754.05
2018-12-17T01:08:08.676Z,97756.73
2018-12-17T01:09:11.525Z,97760.75
2018-12-17T01:10:14.630Z,97755.67
2018-12-17T01:11:17.468Z,97752.19
2018-12-17T01:12:20.499Z,97760.20
2018-12-17T01:13:23.265Z,97767.69
2018-12-17T01:14:26.061Z,97758.05
2018-12-17T01:15:28.834Z,97760.20
2018-12-17T01:16:32.069Z,97770.09
2018-12-17T01:17:34.851Z,97766.61
2018-12-17T01:18:37.771Z,97774.93
2018-12-17T01:19:40.607Z,97769.02
2018-12-17T01:20:43.518Z,97767.68
2018-12-17T01:21:46.397Z,97772.25
2018-12-17T01:22:49.449Z,97766.35
2018-12-17T01:23:52.414Z,97762.87
2018-12-17T01:24:55.194Z,97766.61
2018-12-17T01:25:58.047Z,97765.27
2018-12-17T01:27:00.830Z,97767.95
2018-12-17T01:28:03.611Z,97774.66
2018-12-17T01:29:06.742Z,97769.02
2018-12-17T01:30:09.511Z,97770.90
2018-12-17T01:31:12.253Z,97771.17
2018-12-17T01:32:15.016Z,97775.98
2018-12-17T01:33:17.790Z,97771.43
2018-12-17T01:34:20.551Z,97775.73
2018-12-17T01:35:23.630Z,97769.57
2018-12-17T01:36:26.893Z,97772.25
2018-12-17T01:37:29.634Z,97773.32
2018-12-17T01:38:32.389Z,97774.38
2018-12-17T01:39:35.205Z,97768.50
2018-12-17T01:40:38.138Z,97771.98
2018-12-17T01:41:41.225Z,97771.43
2018-12-17T01:42:44.161Z,97771.97
2018-12-17T01:43:46.976Z,97764.47
2018-12-17T01:44:49.739Z,97770.89
2018-12-17T01:45:52.606Z,97766.88
2018-12-17T01:46:55.380Z,97760.97
2018-12-17T01:47:58.577Z,97762.03
2018-12-17T01:49:01.377Z,97761.51
2018-12-17T01:50:04.174Z,97764.47
2018-12-17T01:51:07.017Z,97768.22
2018-12-17T01:52:09.799Z,97760.70
2018-12-17T01:53:12.611Z,97766.33
2018-12-17T01:54:15.949Z,97761.52
2018-12-17T01:55:18.706Z,97757.23
2018-12-17T01:56:21.531Z,97759.36
2018-12-17T01:57:24.344Z,97758.56
2018-12-17T01:58:29.303Z,97761.78
2018-12-17T01:59:32.002Z,97759.89
2018-12-17T02:00:35.258Z,97763.13
2018-12-17T02:01:38.132Z,97758.02
2018-12-17T02:02:41.303Z,97759.62
2018-12-17T02:03:44.227Z,97764.97
2018-12-17T02:04:47.923Z,97766.30
2018-12-17T02:05:50.765Z,97767.39
2018-12-17T02:06:54.251Z,97769.02
2018-12-17T02:07:57.033Z,97766.06
2018-12-17T02:09:00.168Z,97763.38
2018-12-17T02:10:02.963Z,97764.20
2018-12-17T02:11:05.737Z,97771.17
2018-12-17T02:12:08.857Z,97762.86
2018-12-17T02:13:11.735Z,97767.95
2018-12-17T02:14:14.496Z,97770.90
2018-12-17T02:15:17.351Z,97767.40
2018-12-17T02:16:20.185Z,97775.72
2018-12-17T02:17:23.135Z,97767.68
2018-12-17T02:18:26.303Z,97775.18
2018-12-17T02:19:29.038Z,97776.28
2018-12-17T02:20:31.834Z,97775.45
2018-12-17T02:21:34.583Z,97783.77
2018-12-17T02:22:37.515Z,97782.70
2018-12-17T02:23:40.293Z,97783.75
2018-12-17T02:24:43.565Z,97784.30
2018-12-17T02:25:46.312Z,97785.38
2018-12-17T02:26:49.189Z,97783.24
2018-12-17T02:27:51.965Z,97781.91
2018-12-17T02:28:54.743Z,97789.11
2018-12-17T02:29:57.547Z,97786.98
2018-12-17T02:31:03.882Z,97788.05
2018-12-17T02:32:07.094Z,97785.91
2018-12-17T02:33:10.207Z,97787.77
2018-12-17T02:34:13.168Z,97788.30
2018-12-17T02:35:16.201Z,97790.16
2018-12-17T02:36:19.183Z,97786.41
2018-12-17T02:37:22.505Z,97786.41
2018-12-17T02:38:25.481Z,97794.17
2018-12-17T02:39:28.255Z,97789.64
2018-12-17T02:40:31.442Z,97790.98
2018-12-17T02:41:34.362Z,97790.98
2018-12-17T02:42:37.502Z,97789.34
2018-12-17T02:43:40.771Z,97788.00
2018-12-17T02:44:43.704Z,97785.04
2018-12-17T02:45:46.763Z,97787.45
2018-12-17T02:46:49.563Z,97783.97
2018-12-17T02:47:53.395Z,97796.31
2018-12-17T02:48:56.625Z,97793.63
2018-12-17T02:50:00.542Z,97798.20
2018-12-17T02:51:03.338Z,97795.77
2018-12-17T02:52:06.123Z,97796.31
2018-12-17T02:53:08.867Z,97794.97
2018-12-17T02:54:11.622Z,97797.09
2018-12-17T02:55:14.831Z,97801.67
2018-12-17T02:56:18.067Z,97792.81
2018-12-17T02:57:21.017Z,97793.65
2018-12-17T02:58:24.067Z,97797.67
2018-12-17T02:59:26.972Z,97796.59
2018-12-17T03:00:30.249Z,97803.80
2018-12-17T03:01:33.021Z,97797.09
2018-12-17T03:02:36.715Z,97797.93
2018-12-17T03:03:39.579Z,97800.33
2018-12-17T03:04:42.566Z,97800.33
2018-12-17T03:05:45.473Z,97801.39
2018-12-17T03:06:48.221Z,97797.91
2018-12-17T03:07:51.154Z,97795.50
2018-12-17T03:08:54.457Z,97801.11
2018-12-17T03:09:57.357Z,97802.45
2018-12-17T03:11:00.115Z,97804.88
2018-12-17T03:12:02.905Z,97803.55
2018-12-17T03:13:05.717Z,97806.72
2018-12-17T03:14:08.509Z,97805.65
2018-12-17T03:15:11.751Z,97805.66
2018-12-17T03:16:14.506Z,97808.64
2018-12-17T03:17:17.292Z,97798.73
2018-12-17T03:18:20.217Z,97811.61
2018-12-17T03:19:23.044Z,97805.41
2018-12-17T03:20:25.896Z,97804.35
2018-12-17T03:21:29.132Z,97803.02
2018-12-17T03:22:31.910Z,97806.24
2018-12-17T03:23:34.672Z,97802.21
2018-12-17T03:24:37.433Z,97808.08
2018-12-17T03:25:40.273Z,97805.40
2018-12-17T03:26:43.066Z,97800.04
2018-12-17T03:27:46.185Z,97800.31
2018-12-17T03:28:51.928Z,97798.42
2018-12-17T03:29:53.853Z,97804.61
2018-12-17T03:30:56.710Z,97807.78
2018-12-17T03:31:59.576Z,97810.46
2018-12-17T03:33:02.364Z,97809.94
2018-12-17T03:34:06.325Z,97806.70
2018-12-17T03:35:09.497Z,97809.38
2018-12-17T03:36:12.375Z,97816.08
2018-12-17T03:37:16.517Z,97809.92
2018-12-17T03:38:19.396Z,97816.60
2018-12-17T03:39:22.184Z,97820.63
2018-12-17T03:40:25.350Z,97814.98
2018-12-17T03:41:29.442Z,97821.41
2018-12-17T03:42:32.339Z,97819.83
2018-12-17T03:43:35.181Z,97826.25
2018-12-17T03:44:37.963Z,97827.86
2018-12-17T03:45:40.821Z,97827.31
2018-12-17T03:46:43.591Z,97833.48
2018-12-17T03:47:46.374Z,97835.63
2018-12-17T03:48:49.200Z,97831.61
2018-12-17T03:49:52.017Z,97835.09
2018-12-17T03:50:54.880Z,97835.91
2018-12-17T03:51:57.705Z,97838.59
2018-12-17T03:53:01.016Z,97836.16
2018-12-17T03:54:04.564Z,97839.93
2018-12-17T03:55:07.341Z,97844.23
2018-12-17T03:56:10.193Z,97838.58
2018-12-17T03:57:12.951Z,97841.54
2018-12-17T03:58:15.707Z,97842.33
2018-12-17T03:59:18.947Z,97836.17
2018-12-17T04:00:21.683Z,97838.33
2018-12-17T04:01:24.481Z,97847.98
2018-12-17T04:02:27.271Z,97848.77
2018-12-17T04:03:30.150Z,97845.81
2018-12-17T04:04:32.996Z,97847.70
2018-12-17T04:05:36.384Z,97855.20
2018-12-17T04:06:39.365Z,97858.16
2018-12-17T04:07:42.132Z,97863.25
2018-12-17T04:08:44.978Z,97862.19
2018-12-17T04:09:47.758Z,97865.95
2018-12-17T04:10:50.497Z,97862.47
2018-12-17T04:11:53.585Z,97861.64
2018-12-17T04:12:56.431Z,97866.20
2018-12-17T04:13:59.277Z,97862.17
2018-12-17T04:15:02.034Z,97861.89
2018-12-17T04:16:04.842Z,97861.64
2018-12-17T04:17:07.661Z,97867.55
2018-12-17T04:18:11.206Z,97861.91
2018-12-17T04:19:13.992Z,97861.13
2018-12-17T04:20:16.767Z,97863.52
2018-12-17T04:21:19.554Z,97867.55
2018-12-17T04:22:22.996Z,97860.03
2018-12-17T04:23:25.762Z,97860.56
2018-12-17T04:24:28.937Z,97862.17
2018-12-17T04:25:31.830Z,97859.22
2018-12-17T04:26:34.735Z,97859.20
2018-12-17T04:27:37.560Z,97866.72
2018-12-17T04:28:40.452Z,97860.53
2018-12-17T04:29:43.294Z,97862.67
2018-12-17T04:30:46.067Z,97858.38
2018-12-17T04:31:50.047Z,97859.72
2018-12-17T04:32:52.969Z,97858.11
2018-12-17T04:33:55.728Z,97861.04
2018-12-17T04:34:58.515Z,97858.08
2018-12-17T04:36:01.862Z,97857.30
2018-12-17T04:37:04.797Z,97859.18
2018-12-17T04:38:07.550Z,97869.35
2018-12-17T04:39:10.436Z,97863.66
2018-12-17T04:40:13.221Z,97863.41
2018-12-17T04:41:16.396Z,97866.34
2018-12-17T04:42:19.730Z,97867.16
2018-12-17T04:43:22.966Z,97863.12
2018-12-17T04:44:25.772Z,97866.09
2018-12-17T04:45:28.706Z,97862.30
2018-12-17T04:46:31.626Z,97865.55
2018-12-17T04:47:34.738Z,97864.48
2018-12-17T04:48:37.628Z,97866.90
2018-12-17T04:49:40.516Z,97871.70
2018-12-17T04:50:43.419Z,97867.95
2018-12-17T04:51:46.624Z,97863.66
2018-12-17T04:52:50.022Z,97862.09
2018-12-17T04:53:53.551Z,97864.50
2018-12-17T04:54:56.412Z,97870.14
2018-12-17T04:55:59.175Z,97868.25
2018-12-17T04:57:02.448Z,97869.05
2018-12-17T04:58:06.100Z,97868.52
2018-12-17T04:59:14.641Z,97871.20
2018-12-17T05:00:15.474Z,97872.80
2018-12-17T05:01:18.196Z,97871.98
2018-12-17T05:02:21.232Z,97869.03
2018-12-17T05:03:24.699Z,97863.12
2018-12-17T05:04:27.452Z,97869.55
2018-12-17T05:05:30.751Z,97868.48
2018-12-17T05:06:34.246Z,97868.75
2018-12-17T05:07:37.199Z,97867.93
2018-12-17T05:08:40.052Z,97876.25
2018-12-17T05:09:44.418Z,97870.61
2018-12-17T05:10:47.463Z,97873.75
2018-12-17T05:11:50.770Z,97871.64
2018-12-17T05:12:53.532Z,97874.84
2018-12-17T05:13:56.483Z,97884.80
2018-12-17T05:14:59.389Z,97884.25
2018-12-17T05:16:02.287Z,97880.47
2018-12-17T05:17:05.236Z,97881.83
2018-12-17T05:18:08.688Z,97880.73
2018-12-17T05:19:11.656Z,97889.58
2018-12-17T05:20:14.583Z,97891.73
2018-12-17T05:21:17.419Z,97889.56
2018-12-17T05:22:21.301Z,97898.20
2018-12-17T05:23:24.694Z,97897.41
2018-12-17T05:24:29.173Z,97894.99
2018-12-17T05:25:31.932Z,97899.23
2018-12-17T05:26:34.724Z,97896.27
2018-12-17T05:27:37.481Z,97900.04
2018-12-17T05:28:40.270Z,97903.50
2018-12-17T05:29:44.355Z,97904.28
2018-12-17T05:30:47.491Z,97908.58
2018-12-17T05:31:50.314Z,97907.24
2018-12-17T05:32:53.360Z,97908.06
2018-12-17T05:33:56.135Z,97917.21
2018-12-17T05:34:59.318Z,97918.83
2018-12-17T05:36:02.236Z,97916.69
2018-12-17T05:37:05.302Z,97923.68
2018-12-17T05:38:08.045Z,97922.06
2018-12-17T05:39:10.838Z,97917.25
2018-12-17T05:40:13.566Z,97932.54
2018-12-17T05:41:16.334Z,97929.84
2018-12-17T05:42:19.154Z,97931.99
2018-12-17T05:43:22.363Z,97931.44
2018-12-17T05:44:25.122Z,97937.63
2018-12-17T05:45:27.909Z,97937.34
2018-12-17T05:46:30.674Z,97936.29
2018-12-17T05:47:33.485Z,97934.13
2018-12-17T05:48:36.318Z,97943.00
2018-12-17T05:49:39.411Z,97943.02
2018-12-17T05:50:42.175Z,97941.41
2018-12-17T05:51:44.937Z,97941.66
2018-12-17T05:52:48.520Z,97937.40
2018-12-17T05:53:51.314Z,97945.70
2018-12-17T05:54:54.102Z,97940.09
2018-12-17T05:55:57.279Z,97941.45
2018-12-17T05:57:00.137Z,97944.66
2018-12-17T05:58:02.925Z,97943.31
2018-12-17T05:59:05.690Z,97949.50
2018-12-17T06:00:08.509Z,97945.48
2018-12-17T06:01:11.363Z,97946.81
2018-12-17T06:02:14.924Z,97944.89
2018-12-17T06:03:18.257Z,97951.88
2018-12-17T06:04:21.513Z,97942.19
2018-12-17T06:05:24.883Z,97949.95
2018-12-17T06:06:27.740Z,97948.59
2018-12-17T06:07:31.222Z,97942.14
2018-12-17T06:08:35.072Z,97940.81
2018-12-17T06:09:38.059Z,97940.53
2018-12-17T06:10:41.357Z,97942.98
2018-12-17T06:11:44.515Z,97945.38
2018-12-17T06:12:47.291Z,97946.16
2018-12-17T06:13:50.626Z,97948.84
2018-12-17T06:14:54.354Z,97948.85
2018-12-17T06:15:57.144Z,97948.06
2018-12-17T06:17:00.358Z,97949.14
2018-12-17T06:18:04.710Z,97951.26
2018-12-17T06:19:08.195Z,97951.28
2018-12-17T06:20:11.547Z,97956.88
2018-12-17T06:21:14.396Z,97950.72
2018-12-17T06:22:18.399Z,97957.98
2018-12-17T06:23:21.670Z,97953.96
2018-12-17T06:24:25.927Z,97954.47
2018-12-17T06:25:29.156Z,97955.83
2018-12-17T06:26:32.484Z,97951.53
2018-12-17T06:27:37.040Z,97956.09
2018-12-17T06:28:40.918Z,97949.91
2018-12-17T06:29:45.324Z,97959.33
2018-12-17T06:43:51.535Z,97963.56
2018-12-17T06:46:06.510Z,97956.04
2018-12-17T06:47:09.774Z,97963.30
2018-12-17T06:48:17.015Z,97959.78
2018-12-17T06:49:18.701Z,97958.44
2018-12-17T06:50:21.925Z,97961.13
2018-12-17T06:51:25.128Z,97956.84
2018-12-17T06:52:28.328Z,97966.47
2018-12-17T06:53:31.915Z,97966.75
2018-12-17T06:54:34.863Z,97967.31
2018-12-17T06:55:39.978Z,97965.38
2018-12-17T06:56:43.169Z,97965.38
2018-12-17T06:57:46.418Z,97971.04
2018-12-17T06:58:49.814Z,97972.67
2018-12-17T06:59:52.624Z,97965.95
2018-12-17T07:00:55.598Z,97962.71
2018-12-17T07:02:00.016Z,97972.40
2018-12-17T07:03:03.597Z,97973.75
2018-12-17T07:04:06.849Z,97974.02
2018-12-17T07:05:11.061Z,97976.71
2018-12-17T07:06:14.461Z,97979.11
2018-12-17T07:07:18.043Z,97981.53
2018-12-17T07:08:21.648Z,97981.81
2018-12-17T07:09:24.460Z,97987.17
2018-12-17T07:10:30.898Z,97983.42
2018-12-17T07:11:34.249Z,97982.89
2018-12-17T07:12:37.546Z,97983.16
2018-12-17T07:13:40.394Z,97985.58
2018-12-17T07:14:43.876Z,97990.96
2018-12-17T07:15:46.996Z,97990.95
2018-12-17T07:16:50.567Z,97997.41
2018-12-17T07:17:53.490Z,97998.22
2018-12-17T07:18:56.564Z,97995.79
2018-12-17T07:20:00.462Z,97999.58
2018-12-17T07:21:05.012Z,98002.28
2018-12-17T07:22:08.008Z,97997.98
2018-12-17T07:23:11.320Z,98004.97
2018-12-17T08:23:14.856Z,98090.08
2018-12-17T08:24:17.693Z,98091.97
2018-12-17T08:25:20.485Z,98091.42
2018-12-17T08:26:23.605Z,98093.59
2018-12-17T08:28:25.516Z,98096.80
2018-12-17T08:29:28.594Z,98098.43
2018-12-17T08:30:31.690Z,98095.75
2018-12-17T08:31:34.571Z,98105.70
2018-12-17T08:32:38.552Z,98098.70
2018-12-17T08:33:41.499Z,98103.54
2018-12-17T08:34:45.510Z,98107.56
2018-12-17T08:35:50.181Z,98100.84
2018-12-17T08:36:53.490Z,98101.39
2018-12-17T08:37:56.389Z,98103.81
2018-12-17T08:38:59.264Z,98103.00
2018-12-17T08:40:02.465Z,98104.89
2018-12-17T08:41:06.233Z,98099.52
2018-12-17T08:42:09.508Z,98105.17
2018-12-17T08:43:12.648Z,98097.63
2018-12-17T08:44:16.047Z,98092.52
2018-12-17T08:45:19.345Z,98094.39
2018-12-17T08:46:22.546Z,98087.94
2018-12-17T08:47:26.025Z,98088.47
2018-12-17T08:48:29.558Z,98089.25
2018-12-17T08:49:32.631Z,98090.86
2018-12-17T08:50:37.573Z,98090.30
2018-12-17T08:51:40.956Z,98095.94
2018-12-17T08:52:43.967Z,98094.87
2018-12-17T08:53:47.671Z,98091.11
2018-12-17T08:54:51.986Z,98097.55
2018-12-17T08:55:54.768Z,98098.61
2018-12-17T08:56:57.706Z,98097.54
2018-12-17T08:58:02.497Z,98106.94
2018-12-17T08:59:05.277Z,98107.20
2018-12-17T09:00:11.215Z,98104.79
2018-12-17T09:01:13.613Z,98106.38
2018-12-17T09:02:17.143Z,98106.91
2018-12-17T09:03:20.032Z,98113.89
2018-12-17T09:04:24.323Z,98113.34
2018-12-17T09:05:27.203Z,98113.59
2018-12-17T09:06:31.483Z,98109.56
2018-12-17T09:07:34.518Z,98118.73
2018-12-17T09:08:38.111Z,98115.04
2018-12-17T09:09:41.539Z,98119.86
2018-12-17T09:10:44.974Z,98119.35
2018-12-17T09:11:47.901Z,98121.76
2018-12-17T09:12:52.651Z,98123.36
2018-12-17T09:13:55.839Z,98121.75
2018-12-17T09:16:04.044Z,98133.56
2018-12-17T09:17:07.601Z,98135.19
2018-12-17T09:18:10.418Z,98138.94
2018-12-17T09:19:13.662Z,98139.48
2018-12-17T09:20:16.499Z,98140.26
2018-12-17T09:21:19.317Z,98145.34
2018-12-17T09:22:22.219Z,98140.00
2018-12-17T09:23:24.997Z,98142.42
2018-12-17T09:24:27.772Z,98149.66
2018-12-17T09:25:30.994Z,98147.23
2018-12-17T09:26:33.773Z,98145.09
2018-12-17T09:27:36.572Z,98152.88
2018-12-17T09:28:39.421Z,98155.04
2018-12-17T09:29:42.857Z,98146.44
2018-12-17T09:30:45.625Z,98150.22
2018-12-17T09:31:50.016Z,98146.71
2018-12-17T09:32:53.591Z,98146.98
2018-12-17T09:33:56.398Z,98153.97
2018-12-17T09:34:59.230Z,98151.56
2018-12-17T09:36:02.854Z,98155.87
2018-12-17T09:37:06.831Z,98157.73
2018-12-17T09:38:11.640Z,98155.32
2018-12-17T09:39:14.443Z,98153.97
2018-12-17T09:40:17.224Z,98151.29
2018-12-17T09:41:21.073Z,98150.48
2018-12-17T09:42:23.883Z,98150.47
2018-12-17T09:43:27.830Z,98149.91
2018-12-17T09:44:33.789Z,98157.17
2018-12-17T09:45:36.568Z,98157.45
2018-12-17T09:46:39.412Z,98156.60
2018-12-17T09:47:42.930Z,98160.63
2018-12-17T09:48:45.732Z,98154.98
2018-12-17T09:49:48.606Z,98153.64
2018-12-17T09:50:51.404Z,98148.52
2018-12-17T09:51:54.168Z,98147.72
2018-12-17T09:52:56.916Z,98153.35
2018-12-17T09:53:59.682Z,98159.02
2018-12-17T09:55:02.433Z,98154.70
2018-12-17T09:56:05.574Z,98150.92
2018-12-17T09:57:08.858Z,98154.13
2018-12-17T09:58:12.670Z,98160.31
2018-12-17T09:59:16.308Z,98155.20
2018-12-17T10:00:25.197Z,98154.36
2018-12-17T10:01:23.967Z,98157.32
2018-12-17T10:02:27.529Z,98150.05
2018-12-17T10:03:31.118Z,98151.41
2018-12-17T10:04:35.474Z,98154.08
2018-12-17T10:05:38.331Z,98151.16
2018-12-17T10:06:41.816Z,98157.60
2018-12-17T10:07:44.656Z,98165.12
2018-12-17T10:08:47.871Z,98154.92
2018-12-17T10:09:50.695Z,98159.23
2018-12-17T10:10:54.122Z,98158.69
2018-12-17T10:11:56.916Z,98159.23
2018-12-17T10:13:00.422Z,98157.33
2018-12-17T10:14:04.857Z,98154.94
2018-12-17T10:15:08.001Z,98158.69
2018-12-17T10:16:13.284Z,98153.59
2018-12-17T10:17:16.253Z,98152.25
2018-12-17T10:18:19.076Z,98155.73
2018-12-17T10:19:22.711Z,98150.91
2018-12-17T10:20:26.203Z,98155.20
2018-12-17T10:21:29.417Z,98159.45
2018-12-17T10:22:32.325Z,98151.67
2018-12-17T10:23:35.275Z,98158.95
2018-12-17T10:24:38.166Z,98153.58
2018-12-17T10:25:42.171Z,98152.51
2018-12-17T10:26:45.701Z,98150.89
2018-12-17T10:27:49.049Z,98154.36
2018-12-17T10:28:53.120Z,98145.22
2018-12-17T10:29:56.090Z,98144.42
2018-12-17T10:30:59.637Z,98143.34
2018-12-17T10:32:06.503Z,98148.73
2018-12-17T10:33:11.460Z,98146.84
2018-12-17T10:34:15.033Z,98144.16
2018-12-17T10:35:18.022Z,98145.77
2018-12-17T10:36:20.908Z,98145.49
2018-12-17T10:37:25.722Z,98146.83
2018-12-17T10:38:28.776Z,98140.91
2018-12-17T10:39:32.017Z,98150.30
2018-12-17T10:40:41.340Z,98147.09
2018-12-17T10:41:47.539Z,98140.38
2018-12-17T10:42:55.487Z,98147.88
2018-12-17T10:43:58.475Z,98150.30
2018-12-17T10:45:02.996Z,98146.54
2018-12-17T10:46:06.130Z,98146.27
2018-12-17T10:47:09.363Z,98156.23
2018-12-17T10:48:13.441Z,98154.06
2018-12-17T10:49:17.305Z,98148.69
2018-12-17T10:50:20.560Z,98144.39
2018-12-17T10:51:23.517Z,98149.47
2018-12-17T10:52:26.889Z,98146.77
2018-12-17T10:53:30.228Z,98145.42
2018-12-17T10:54:33.233Z,98137.92
2018-12-17T10:55:36.044Z,98144.65
2018-12-17T10:56:39.052Z,98143.29
2018-12-17T10:57:42.052Z,98144.32
2018-12-17T10:58:45.163Z,98143.74
2018-12-17T10:59:48.494Z,98145.09
2018-12-17T11:00:56.366Z,98144.84
2018-12-17T11:02:05.647Z,98150.73
2018-12-17T11:03:13.608Z,98147.53
2018-12-17T11:04:22.366Z,98144.30
2018-12-17T11:05:28.131Z,98143.73
2018-12-17T11:06:32.251Z,98147.51
2018-12-17T11:07:35.049Z,98151.75
2018-12-17T11:08:37.853Z,98144.75
2018-12-17T11:09:41.548Z,98146.61
2018-12-17T11:10:44.400Z,98145.53
2018-12-17T11:11:47.203Z,98149.31
2018-12-17T11:12:50.480Z,98145.02
2018-12-17T11:13:53.252Z,98146.59
2018-12-17T11:14:56.060Z,98146.84
2018-12-17T11:15:58.851Z,98144.95
2018-12-17T11:17:01.629Z,98145.73
2018-12-17T11:18:04.428Z,98138.20
2018-12-17T11:19:09.392Z,98141.14
2018-12-17T11:20:12.210Z,98141.37
2018-12-17T11:21:14.958Z,98146.22
2018-12-17T11:22:17.849Z,98141.08
2018-12-17T11:23:22.247Z,98144.30
2018-12-17T11:24:26.322Z,98145.12
2018-12-17T11:25:30.107Z,98136.73
2018-12-17T11:26:33.839Z,98139.72
2018-12-17T11:27:36.614Z,98141.34
2018-12-17T11:28:39.688Z,98137.84
2018-12-17T11:29:42.446Z,98138.39
2018-12-17T11:43:55.156Z,98152.50
2018-12-17T11:44:58.539Z,98158.71
2018-12-17T11:46:03.373Z,98157.09
2018-12-17T11:47:08.091Z,98149.81
2018-12-17T11:49:18.773Z,98153.58
2018-12-17T11:50:23.291Z,98152.48
2018-12-17T11:51:26.104Z,98152.75
2018-12-17T11:52:29.707Z,98153.30
2018-12-17T11:53:41.418Z,98151.96
2018-12-17T11:54:44.218Z,98155.45
2018-12-17T11:55:47.246Z,98152.46
2018-12-17T11:56:50.004Z,98155.41
2018-12-17T11:57:52.738Z,98156.25
2018-12-17T11:58:57.508Z,98150.59
2018-12-17T12:00:00.958Z,98153.79
2018-12-17T12:01:07.290Z,98161.86
2018-12-17T12:02:10.166Z,98151.06
2018-12-17T12:03:13.051Z,98156.14
2018-12-17T12:04:17.332Z,98159.91
2018-12-17T12:05:20.161Z,98159.36
2018-12-17T12:06:23.323Z,98160.47
2018-12-17T12:07:26.749Z,98156.97
2018-12-17T12:08:31.603Z,98156.70
2018-12-17T12:09:37.932Z,98163.98
2018-12-17T12:10:40.711Z,98159.38
2018-12-17T12:11:45.028Z,98158.56
2018-12-17T12:12:48.615Z,98156.64
2018-12-17T12:13:51.398Z,98155.81
2018-12-17T12:14:54.244Z,98156.61
2018-12-17T12:16:03.413Z,98157.13
2018-12-17T12:17:06.839Z,98149.87
2018-12-17T12:18:10.538Z,98153.33
2018-12-17T12:19:13.993Z,98157.09
2018-12-17T12:20:18.765Z,98159.75
2018-12-17T12:21:21.625Z,98164.33
2018-12-17T12:22:24.798Z,98161.34
2018-12-17T12:23:27.648Z,98159.19
2018-12-17T12:24:31.616Z,98158.61
2018-12-17T12:25:35.132Z,98153.51
2018-12-17T12:26:38.872Z,98163.18
2018-12-17T12:27:41.738Z,98157.77
2018-12-17T12:28:44.790Z,98161.27
2018-12-17T12:29:47.572Z,98162.09
2018-12-17T12:30:50.986Z,98155.86
2018-12-17T12:31:53.801Z,98163.68
2018-12-17T12:32:57.721Z,98156.92
2018-12-17T12:34:00.735Z,98162.05
2018-12-17T12:35:04.861Z,98160.70
2018-12-17T12:36:08.627Z,98165.01
2018-12-17T12:37:12.557Z,98161.47
2018-12-17T12:38:15.469Z,98168.50
2018-12-17T12:39:19.046Z,98159.06
2018-12-17T12:40:21.970Z,98161.47
2018-12-17T12:41:25.574Z,98167.66
2018-12-17T12:42:29.833Z,98172.52
2018-12-17T12:43:32.799Z,98170.35
2018-12-17T12:44:36.651Z,98171.70
2018-12-17T12:45:39.793Z,98168.16
2018-12-17T12:46:45.317Z,98174.37
2018-12-17T12:47:51.402Z,98170.83
2018-12-17T12:48:54.560Z,98174.34
2018-12-17T12:49:58.023Z,98174.08
2018-12-17T12:51:00.899Z,98174.05
2018-12-17T12:52:03.753Z,98173.77
2018-12-17T12:53:10.080Z,98176.72
2018-12-17T12:54:14.597Z,98171.89
2018-12-17T12:55:17.417Z,98180.73
2018-12-17T12:56:20.963Z,98176.11
2018-12-17T12:57:23.872Z,98180.95
2018-12-17T12:58:26.696Z,98180.64
2018-12-17T12:59:30.879Z,98183.04
2018-12-17T13:00:35.768Z,98181.53
2018-12-17T13:01:39.934Z,98180.33
2018-12-17T13:02:43.331Z,98177.34
2018-12-17T13:03:46.600Z,98180.06
2018-12-17T13:04:50.605Z,98189.59
2018-12-17T13:05:53.595Z,98186.39
2018-12-17T13:06:56.668Z,98187.83
2018-12-17T13:07:59.995Z,98190.52
2018-12-17T13:09:02.860Z,98195.65
2018-12-17T13:10:07.240Z,98186.80
2018-12-17T13:11:11.112Z,98195.67
2018-12-17T13:12:13.878Z,98197.61
2018-12-17T13:13:16.760Z,98197.84
2018-12-17T13:14:20.538Z,98202.97
2018-12-17T13:15:25.249Z,98209.69
2018-12-17T13:16:28.451Z,98200.48
2018-12-17T13:17:32.147Z,98205.35
2018-12-17T13:18:35.669Z,98206.70
2018-12-17T13:19:38.828Z,98206.44
2018-12-17T13:20:42.461Z,98205.35
2018-12-17T13:21:45.290Z,98205.86
2018-12-17T13:22:48.119Z,98207.44
2018-12-17T13:23:51.211Z,98210.95
2018-12-17T13:24:53.994Z,98210.93
2018-12-17T13:25:57.796Z,98214.98
2018-12-17T13:27:01.724Z,98214.45
2018-12-17T13:28:04.599Z,98212.57
2018-12-17T13:29:07.475Z,98219.02
2018-12-17T13:30:10.454Z,98213.31
2018-12-17T13:31:14.740Z,98214.36
2018-12-17T13:32:17.863Z,98213.31
2018-12-17T13:33:21.570Z,98217.11
2018-12-17T13:34:25.033Z,98226.80
2018-12-17T13:35:28.023Z,98224.89
2018-12-17T13:36:32.029Z,98227.08
2018-12-17T13:37:34.986Z,98225.73
2018-12-17T13:38:38.248Z,98225.20
2018-12-17T13:39:41.983Z,98231.63
2018-12-17T13:40:44.833Z,98235.86
2018-12-17T13:41:47.740Z,98231.05
2018-12-17T13:42:50.731Z,98236.47
2018-12-17T13:43:53.654Z,98232.16
2018-12-17T13:44:58.666Z,98232.40
2018-12-17T13:46:01.780Z,98236.69
2018-12-17T13:47:04.800Z,98239.87
2018-12-17T13:48:08.077Z,98242.58
2018-12-17T13:49:11.910Z,98247.16
2018-12-17T13:50:19.822Z,98241.47
2018-12-17T13:51:28.358Z,98247.36
2018-12-17T13:52:37.279Z,98241.67
2018-12-17T13:53:40.391Z,98251.94